^^
Station Historical Data
Daily Summary for January 16, 2018 Units:  English    Metric   Both
« Previous Day
Next Day »
Daily Weekly Monthly Yearly Custom
  High: Low: Average:
Temperature: TemperatureF °F 71.4 °F 79.2 °F
Dew Point: DewpointF °F 39.7 °F 45.3 °F
Humidity: Humidity% 24% 30%
Wind Speed: WindSpeedMPHmph -999.9mph -35.9mph
Wind Gust: WindSpeedGustMPHmph - -
Wind- -
Pressure: PressureIn in 29.53 in -
Precipitation: 0.00 in    
Historical Graphs
 
 
Tabular Data for January 16, 2018
Time Temperature Dew Point Pressure Wind Wind Speed Wind Gust Humidity Rainfall Rate (Hourly) solar Conditions
TemperatureF °F DewpointF °F PressureIn in Calm     Humidity% HourlyPrecipIn in SoftwareType W/m2 Conditions
08:47 74.8 °F 42.3 °F 29.65 in North 15.0 mph 15.0 mph 31% 0.00 in meteobridge W/m2
08:53 75.2 °F 42.4 °F 29.65 in NNE 11.0 mph 15.0 mph 31% 0.00 in meteobridge W/m2
08:59 75.4 °F 42.6 °F 29.65 in North 14.1 mph 18.0 mph 31% 0.00 in meteobridge W/m2
09:06 75.9 °F 40.5 °F 29.65 in NE 13.0 mph 18.0 mph 28% 0.00 in meteobridge W/m2
09:12 76.1 °F 40.6 °F 29.66 in NNW 14.1 mph 19.0 mph 28% 0.00 in meteobridge W/m2
09:18 76.3 °F 39.9 °F 29.66 in North 4.9 mph 20.0 mph 27% 0.00 in meteobridge W/m2
09:30 77.0 °F 40.5 °F 29.66 in North 14.1 mph 20.0 mph 27% 0.00 in meteobridge W/m2
09:36 77.2 °F 40.6 °F 29.66 in North 8.1 mph 18.0 mph 27% 0.00 in meteobridge W/m2
09:42 77.7 °F 41.0 °F 29.66 in NNE 8.9 mph 18.0 mph 27% 0.00 in meteobridge W/m2
09:48 78.6 °F 40.8 °F 29.65 in NNE 8.9 mph 15.0 mph 26% 0.00 in meteobridge W/m2
09:55 79.2 °F 40.3 °F 29.65 in North 15.0 mph 15.0 mph 25% 0.00 in meteobridge W/m2
10:01 79.3 °F 40.5 °F 29.65 in North 16.1 mph 18.0 mph 25% 0.00 in meteobridge W/m2
10:07 79.2 °F 40.3 °F 29.65 in NNE 11.0 mph 20.0 mph 25% 0.00 in meteobridge W/m2
10:13 79.0 °F 40.1 °F 29.66 in North 8.9 mph 12.0 mph 25% 0.00 in meteobridge W/m2
10:19 78.4 °F 39.7 °F 29.65 in NNE 4.0 mph 10.0 mph 25% 0.00 in meteobridge W/m2
10:25 79.7 °F 39.7 °F 29.65 in North 10.1 mph 14.0 mph 24% 0.00 in meteobridge W/m2
10:31 80.4 °F 40.3 °F 29.65 in NNE 6.0 mph 12.0 mph 24% 0.00 in meteobridge W/m2
10:37 81.1 °F 41.0 °F 29.65 in North 4.9 mph 12.0 mph 24% 0.00 in meteobridge W/m2
10:49 81.1 °F 41.9 °F 29.65 in NNW 10.1 mph 13.0 mph 25% 0.00 in meteobridge W/m2
10:55 81.1 °F 41.0 °F 29.65 in North 4.0 mph 10.0 mph 24% 0.00 in meteobridge W/m2
11:02 82.8 °F 42.3 °F 29.65 in NE 12.1 mph 19.0 mph 24% 0.00 in meteobridge W/m2
11:08 82.6 °F 43.2 °F 29.65 in North 11.0 mph 16.0 mph 25% 0.00 in meteobridge W/m2
11:14 82.2 °F 43.9 °F 29.65 in North 8.9 mph 21.0 mph 26% 0.00 in meteobridge W/m2
11:20 82.2 °F 43.9 °F 29.64 in North 6.9 mph 16.0 mph 26% 0.00 in meteobridge W/m2
11:26 82.2 °F 45.0 °F 29.64 in North 11.0 mph 17.0 mph 27% 0.00 in meteobridge W/m2
11:32 82.4 °F 45.1 °F 29.63 in North 14.1 mph 18.0 mph 27% 0.00 in meteobridge W/m2
11:49 84.2 °F 45.7 °F 29.62 in NE 6.9 mph 12.0 mph 26% 0.00 in meteobridge W/m2
11:55 84.6 °F 45.9 °F 29.62 in NE 13.0 mph 14.0 mph 26% 0.00 in meteobridge W/m2
12:21 83.7 °F 46.2 °F 29.62 in NE 4.9 mph 11.0 mph 27% 0.00 in meteobridge W/m2
12:27 84.2 °F 45.7 °F 29.61 in North 0.9 mph 6.0 mph 26% 0.00 in meteobridge W/m2
12:33 85.8 °F 46.9 °F 29.61 in East 4.9 mph 14.0 mph 26% 0.00 in meteobridge W/m2
12:39 87.4 °F 47.3 °F 29.61 in North 13.0 mph 16.0 mph 25% 0.00 in meteobridge W/m2
12:45 84.9 °F 46.2 °F 29.60 in NE 6.9 mph 16.0 mph 26% 0.00 in meteobridge W/m2
12:52 84.7 °F 46.0 °F 29.61 in NE 4.9 mph 13.0 mph 26% 0.00 in meteobridge W/m2
13:02 85.5 °F 46.6 °F 29.60 in East 4.0 mph 8.0 mph 26% 0.00 in meteobridge W/m2
13:08 86.4 °F 46.4 °F 29.60 in NE 4.9 mph 9.0 mph 25% 0.00 in meteobridge W/m2
13:14 86.7 °F 46.8 °F 29.59 in ESE 0.9 mph 2.0 mph 25% 0.00 in meteobridge W/m2
13:24 86.0 °F 46.0 °F 29.59 in NE 6.0 mph 11.0 mph 25% 0.00 in meteobridge W/m2
13:30 84.7 °F 46.0 °F 29.59 in East 0.9 mph 4.0 mph 26% 0.00 in meteobridge W/m2
13:42 84.4 °F 45.7 °F 29.58 in SE 0.9 mph 3.0 mph 26% 0.00 in meteobridge W/m2
14:07 85.3 °F 46.6 °F 29.57 in NNE 2.9 mph 6.0 mph 26% 0.00 in meteobridge W/m2
14:13 84.7 °F 46.0 °F 29.57 in NNE 2.0 mph 7.0 mph 26% 0.00 in meteobridge W/m2
14:19 84.6 °F 45.9 °F 29.57 in NNE 2.9 mph 4.0 mph 26% 0.00 in meteobridge W/m2
14:25 84.6 °F 46.9 °F 29.56 in North 8.9 mph 12.0 mph 27% 0.00 in meteobridge W/m2
14:31 84.4 °F 46.8 °F 29.56 in Calm   2.0 mph 27% 0.00 in meteobridge W/m2
14:37 84.4 °F 46.8 °F 29.56 in ESE 4.9 mph 10.0 mph 27% 0.00 in meteobridge W/m2
14:43 84.6 °F 46.9 °F 29.56 in SE 0.9 mph 4.0 mph 27% 0.00 in meteobridge W/m2
14:49 84.7 °F 47.1 °F 29.56 in Calm   3.0 mph 27% 0.00 in meteobridge W/m2
14:56 84.6 °F 51.4 °F 29.55 in SSE 2.9 mph 6.0 mph 32% 0.00 in meteobridge W/m2
15:02 82.8 °F 51.4 °F 29.55 in SSE 2.0 mph 4.0 mph 34% 0.00 in meteobridge W/m2
15:12 82.0 °F 49.3 °F 29.54 in Calm   6.0 mph 32% 0.00 in meteobridge W/m2
15:20 82.2 °F 47.7 °F 29.54 in South 12.1 mph 12.1 mph 30% 0.00 in meteobridge W/m2
15:26 82.4 °F 46.9 °F 29.54 in South 2.9 mph 7.0 mph 29% 0.00 in meteobridge W/m2
15:34 82.6 °F 47.1 °F 29.54 in South 4.9 mph 15.0 mph 29% 0.00 in meteobridge W/m2
15:40 81.9 °F 46.4 °F 29.54 in South 4.9 mph 9.0 mph 29% 0.00 in meteobridge W/m2
15:47 81.9 °F 46.4 °F 29.55 in SE 6.9 mph 7.0 mph 29% 0.00 in meteobridge W/m2
15:53 81.0 °F 49.1 °F 29.55 in NNW 8.9 mph 15.0 mph 33% 0.00 in meteobridge W/m2
16:03 77.2 °F 51.6 °F 29.55 in North 4.0 mph 23.0 mph 41% 0.00 in meteobridge W/m2
16:09 74.3 °F 54.0 °F 29.54 in SSE 2.0 mph 7.0 mph 49% 0.00 in meteobridge W/m2
16:17 71.4 °F 52.9 °F 29.53 in NE 8.9 mph 10.0 mph 52% 0.00 in meteobridge W/m2
16:23 72.0 °F 53.4 °F 29.54 in ENE 2.9 mph 7.0 mph 52% 0.00 in meteobridge W/m2
16:30 72.9 °F 53.1 °F 29.54 in Calm   2.0 mph 50% 0.00 in meteobridge W/m2
16:36 73.0 °F 52.7 °F 29.55 in South 4.9 mph 7.0 mph 49% 0.00 in meteobridge W/m2
16:42 73.4 °F 52.5 °F 29.55 in SSW 4.9 mph 5.0 mph 48% 0.00 in meteobridge W/m2
16:52 73.9 °F 51.3 °F 29.55 in South 6.0 mph 6.0 mph 45% 0.00 in meteobridge W/m2
16:58 73.9 °F 51.3 °F 29.55 in South 6.0 mph -999.0 mph 45% 0.00 in meteobridge W/m2
17:05 73.9 °F 51.3 °F 29.56 in South 6.0 mph -999.0 mph 45% 0.00 in meteobridge W/m2
17:13 73.9 °F 51.3 °F 29.56 in North -999.9 mph -999.0 mph 45% 0.00 in meteobridge W/m2
17:19 73.9 °F 51.3 °F 29.55 in North -999.9 mph -999.0 mph 45% 0.00 in meteobridge W/m2
17:26 73.9 °F 51.3 °F 29.54 in North -999.9 mph -999.0 mph 45% 0.00 in meteobridge W/m2
Regenstein, Windhoek, Namibia
Compliments of Weather Underground - 2.5 mb